createdAt,value
2022-08-19T00:01:41.087Z,13.97
2022-08-19T00:04:12.408Z,11.00
2022-08-19T00:06:43.559Z,10.57
2022-08-19T00:09:13.883Z,10.47
2022-08-19T00:11:42.173Z,12.37
2022-08-19T00:14:11.660Z,10.23
2022-08-19T00:16:39.770Z,12.53
2022-08-19T00:19:07.955Z,11.23
2022-08-19T00:21:37.590Z,10.40
2022-08-19T00:24:07.574Z,11.70
2022-08-19T00:26:35.505Z,10.03
2022-08-19T00:29:03.235Z,12.90
2022-08-19T00:31:32.085Z,10.63
2022-08-19T00:34:00.107Z,10.87
2022-08-19T00:36:29.608Z,10.83
2022-08-19T00:38:57.932Z,12.63
2022-08-19T00:41:27.164Z,11.03
2022-08-19T00:44:03.402Z,11.43
2022-08-19T00:46:31.322Z,10.93
2022-08-19T00:48:59.508Z,13.73
2022-08-19T00:51:29.634Z,11.73
2022-08-19T00:54:00.175Z,11.90
2022-08-19T00:56:29.818Z,13.20
2022-08-19T00:59:00.388Z,14.07
2022-08-19T01:01:28.348Z,12.57
2022-08-19T01:03:57.759Z,13.17
2022-08-19T01:06:27.241Z,13.27
2022-08-19T01:08:56.015Z,11.70
2022-08-19T01:11:24.009Z,11.97
2022-08-19T01:13:55.092Z,12.20
2022-08-19T01:16:26.080Z,14.10
2022-08-19T01:18:53.866Z,14.10
2022-08-19T01:21:28.135Z,13.77
2022-08-19T01:23:57.433Z,16.20
2022-08-19T01:26:26.670Z,17.37
2022-08-19T01:29:00.676Z,14.23
2022-08-19T01:31:32.813Z,17.80
2022-08-19T01:34:02.409Z,16.30
2022-08-19T01:36:32.758Z,15.13
2022-08-19T01:39:02.857Z,16.63
2022-08-19T01:41:30.534Z,14.03
2022-08-19T01:44:13.585Z,14.27
2022-08-19T01:46:46.319Z,16.10
2022-08-19T01:49:14.145Z,15.23
2022-08-19T01:51:42.053Z,17.97
2022-08-19T01:54:13.585Z,15.17
2022-08-19T01:56:41.327Z,16.90
2022-08-19T01:59:14.283Z,19.73
2022-08-19T02:01:42.904Z,18.07
2022-08-19T02:04:10.857Z,20.47
2022-08-19T02:06:40.304Z,18.57
2022-08-19T02:09:09.136Z,13.40
2022-08-19T02:11:40.060Z,14.43
2022-08-19T02:14:09.577Z,16.37
2022-08-19T02:16:39.357Z,14.97
2022-08-19T02:19:07.361Z,13.20
2022-08-19T02:21:36.141Z,13.70
2022-08-19T02:24:04.895Z,15.10
2022-08-19T02:26:33.986Z,15.70
2022-08-19T02:29:03.064Z,15.63
2022-08-19T02:31:30.905Z,18.67
2022-08-19T02:33:59.103Z,16.93
2022-08-19T02:36:28.709Z,20.93
2022-08-19T02:38:57.337Z,17.33
2022-08-19T02:41:27.797Z,19.43
2022-08-19T02:44:26.361Z,19.57
2022-08-19T02:46:45.771Z,19.50
2022-08-19T02:49:13.939Z,19.77
2022-08-19T02:51:43.517Z,24.60
2022-08-19T02:54:13.407Z,20.80
2022-08-19T02:56:42.521Z,21.97
2022-08-19T02:59:11.264Z,22.63
2022-08-19T03:01:41.749Z,20.43
2022-08-19T03:04:13.252Z,19.00
2022-08-19T03:06:42.500Z,19.00
2022-08-19T03:09:10.436Z,17.50
2022-08-19T03:11:39.348Z,16.93
2022-08-19T03:14:08.566Z,17.07
2022-08-19T03:16:44.702Z,17.40
2022-08-19T03:19:14.103Z,17.50
2022-08-19T03:21:41.842Z,16.03
2022-08-19T03:24:10.954Z,16.30
2022-08-19T03:26:41.651Z,16.83
2022-08-19T03:29:11.853Z,15.63
2022-08-19T03:31:52.677Z,15.50
2022-08-19T03:34:27.146Z,14.27
2022-08-19T03:36:55.745Z,14.83
2022-08-19T03:39:24.858Z,15.10
2022-08-19T03:42:32.992Z,15.10
2022-08-19T03:44:46.597Z,16.47
2022-08-19T03:47:16.988Z,14.90
2022-08-19T03:49:46.668Z,14.67
2022-08-19T03:52:15.103Z,14.17
2022-08-19T03:54:43.248Z,14.87
2022-08-19T03:57:12.077Z,19.20
2022-08-19T03:59:40.229Z,14.83
2022-08-19T04:02:10.763Z,14.17
2022-08-19T04:04:44.353Z,14.13
2022-08-19T04:07:16.700Z,15.47
2022-08-19T04:09:44.677Z,15.20
2022-08-19T04:12:12.366Z,16.97
2022-08-19T04:14:40.387Z,15.20
2022-08-19T04:17:08.308Z,14.90
2022-08-19T04:19:37.747Z,15.53
2022-08-19T04:22:05.914Z,14.37
2022-08-19T04:24:37.795Z,12.97
2022-08-19T04:27:07.006Z,13.33
2022-08-19T04:29:35.588Z,13.03
2022-08-19T04:32:09.150Z,14.43
2022-08-19T04:35:01.181Z,13.57
2022-08-19T04:37:29.445Z,14.17
2022-08-19T04:40:24.207Z,14.67
2022-08-19T04:42:52.241Z,14.17
2022-08-19T04:45:23.119Z,15.10
2022-08-19T04:47:58.103Z,14.73
2022-08-19T04:50:27.197Z,14.13
2022-08-19T04:52:56.476Z,14.13
2022-08-19T04:55:27.367Z,17.73
2022-08-19T04:57:55.358Z,13.57
2022-08-19T05:00:23.325Z,14.20
2022-08-19T05:02:51.024Z,16.03
2022-08-19T05:05:20.872Z,14.73
2022-08-19T05:07:48.871Z,13.13
2022-08-19T05:10:16.767Z,14.70
2022-08-19T05:12:45.824Z,14.40
2022-08-19T05:15:13.789Z,15.17
2022-08-19T05:18:03.224Z,13.73
2022-08-19T05:20:48.686Z,13.90
2022-08-19T05:23:21.840Z,14.47
2022-08-19T05:25:51.174Z,14.33
2022-08-19T05:28:21.100Z,13.97
2022-08-19T05:30:49.112Z,12.77
2022-08-19T05:33:16.940Z,12.07
2022-08-19T05:35:45.138Z,14.40
2022-08-19T05:38:13.676Z,12.40
2022-08-19T05:40:41.628Z,13.20
2022-08-19T05:43:10.036Z,13.67
2022-08-19T05:45:42.954Z,13.53
2022-08-19T05:48:12.059Z,13.40
2022-08-19T05:50:51.357Z,14.13
2022-08-19T05:53:19.668Z,13.97
2022-08-19T05:55:47.550Z,12.40
2022-08-19T05:58:15.270Z,13.03
2022-08-19T06:00:45.998Z,12.83
2022-08-19T06:03:13.822Z,13.00
2022-08-19T06:05:49.588Z,12.53
2022-08-19T06:08:20.679Z,13.90
2022-08-19T06:11:14.718Z,15.60
2022-08-19T06:13:42.856Z,13.23
2022-08-19T06:16:13.224Z,13.83
2022-08-19T06:18:40.994Z,13.00
2022-08-19T06:21:08.730Z,14.87
2022-08-19T06:23:36.504Z,15.10
2022-08-19T06:26:04.374Z,13.23
2022-08-19T06:28:33.915Z,15.43
2022-08-19T06:31:07.437Z,14.23
2022-08-19T06:33:36.629Z,16.37
2022-08-19T06:36:05.308Z,14.23
2022-08-19T06:38:34.329Z,14.23
2022-08-19T06:41:07.346Z,13.57
2022-08-19T06:43:38.150Z,13.20
2022-08-19T06:46:14.663Z,14.37
2022-08-19T06:48:45.986Z,13.63
2022-08-19T06:51:19.313Z,18.33
2022-08-19T06:53:48.107Z,14.43
2022-08-19T06:56:17.240Z,13.23
2022-08-19T06:58:45.247Z,13.23
2022-08-19T07:01:13.035Z,14.50
2022-08-19T07:03:41.150Z,15.73
2022-08-19T07:06:41.115Z,15.73
2022-08-19T07:09:04.488Z,16.90
2022-08-19T07:11:33.561Z,16.97
2022-08-19T07:14:02.476Z,13.83
2022-08-19T07:16:31.216Z,14.27
2022-08-19T07:19:00.460Z,15.13
2022-08-19T07:21:44.825Z,14.43
2022-08-19T07:24:13.348Z,14.27
2022-08-19T07:26:43.719Z,16.70
2022-08-19T07:29:12.391Z,15.90
2022-08-19T07:31:43.610Z,14.57
2022-08-19T07:34:14.339Z,15.77
2022-08-19T07:36:45.411Z,16.67
2022-08-19T07:39:16.223Z,17.10
2022-08-19T07:41:44.461Z,18.00
2022-08-19T07:44:13.433Z,15.40
2022-08-19T07:46:46.490Z,16.27
2022-08-19T07:49:20.094Z,15.97
2022-08-19T07:51:52.141Z,15.03
2022-08-19T07:54:21.528Z,16.47
2022-08-19T07:56:50.487Z,16.70
2022-08-19T07:59:21.509Z,19.43
2022-08-19T08:01:51.045Z,18.33
2022-08-19T08:04:45.793Z,15.73
2022-08-19T08:07:32.525Z,17.03
2022-08-19T08:10:02.941Z,17.67
2022-08-19T08:12:42.289Z,17.83
2022-08-19T08:15:17.113Z,15.60
2022-08-19T08:17:49.024Z,16.60
2022-08-19T08:20:19.791Z,16.67
2022-08-19T08:23:07.184Z,17.97
2022-08-19T08:25:36.623Z,20.30
2022-08-19T08:28:05.763Z,17.87
2022-08-19T08:30:36.783Z,16.73
2022-08-19T08:33:04.975Z,17.60
2022-08-19T08:35:32.927Z,17.23
2022-08-19T08:38:03.568Z,16.97
2022-08-19T08:40:40.314Z,15.60
2022-08-19T08:43:23.847Z,14.97
2022-08-19T08:45:57.288Z,16.17
2022-08-19T08:48:33.538Z,16.27
2022-08-19T08:51:05.318Z,19.00
2022-08-19T08:53:40.448Z,16.80
2022-08-19T08:56:13.974Z,20.83
2022-08-19T08:58:54.694Z,16.40
2022-08-19T09:01:23.430Z,16.37
2022-08-19T09:03:51.852Z,16.37
2022-08-19T09:06:29.040Z,16.13
2022-08-19T09:09:11.838Z,15.73
2022-08-19T09:11:52.805Z,17.60
2022-08-19T09:14:50.330Z,18.63
2022-08-19T09:17:20.337Z,17.73
2022-08-19T09:19:53.943Z,18.47
2022-08-19T09:22:25.733Z,16.97
2022-08-19T09:24:56.777Z,18.67
2022-08-19T09:27:42.130Z,18.27
2022-08-19T09:30:14.666Z,23.13
2022-08-19T09:32:44.021Z,18.87
2022-08-19T09:35:12.187Z,17.50
2022-08-19T09:37:40.681Z,18.23
2022-08-19T09:40:12.291Z,17.60
2022-08-19T09:42:49.959Z,18.37
2022-08-19T09:45:21.993Z,20.43
2022-08-19T09:47:52.040Z,17.40
2022-08-19T09:50:23.856Z,17.33
2022-08-19T09:52:55.303Z,19.43
2022-08-19T09:55:31.802Z,17.20
2022-08-19T09:58:06.861Z,17.47
2022-08-19T10:00:34.856Z,18.50
2022-08-19T10:03:02.582Z,19.03
2022-08-19T10:05:48.919Z,18.97
2022-08-19T10:08:18.141Z,18.03
2022-08-19T10:10:48.107Z,20.00
2022-08-19T10:13:18.074Z,17.43
2022-08-19T10:15:48.049Z,18.07
2022-08-19T10:18:19.128Z,22.13
2022-08-19T10:20:51.297Z,19.33
2022-08-19T10:23:20.807Z,19.03
2022-08-19T10:25:52.326Z,17.67
2022-08-19T10:28:20.138Z,17.20
2022-08-19T10:30:48.528Z,14.97
2022-08-19T10:33:38.688Z,18.70
2022-08-19T10:36:06.308Z,16.63
2022-08-19T10:38:34.806Z,17.67
2022-08-19T10:41:10.747Z,16.17
2022-08-19T10:43:41.622Z,18.63
2022-08-19T10:46:14.140Z,16.50
2022-08-19T10:48:45.474Z,15.87
2022-08-19T10:51:31.813Z,15.03
2022-08-19T10:54:00.251Z,14.87
2022-08-19T11:14:36.551Z,14.83
2022-08-19T11:17:06.699Z,16.60
2022-08-19T11:19:34.699Z,15.40
2022-08-19T11:22:03.954Z,16.30
2022-08-19T11:24:32.390Z,17.53
2022-08-19T11:27:05.402Z,14.57
2022-08-19T11:29:35.431Z,14.37
2022-08-19T11:32:06.688Z,13.80
2022-08-19T11:34:36.226Z,15.30
2022-08-19T11:37:04.857Z,15.23
2022-08-19T11:39:34.330Z,17.60
2022-08-19T11:42:03.662Z,15.07
2022-08-19T11:44:31.501Z,16.20
2022-08-19T11:47:09.081Z,14.70
2022-08-19T11:49:37.241Z,13.70
2022-08-19T11:52:05.348Z,14.40
2022-08-19T11:54:33.106Z,14.60
2022-08-19T11:57:02.098Z,12.23
2022-08-19T11:59:30.238Z,13.97
2022-08-19T12:01:58.753Z,12.80
2022-08-19T12:04:27.960Z,13.57
2022-08-19T12:06:59.138Z,11.93
2022-08-19T12:09:26.917Z,12.30
2022-08-19T12:11:58.728Z,13.80
2022-08-19T12:14:28.951Z,11.33
2022-08-19T12:16:56.738Z,11.87
2022-08-19T12:19:25.566Z,11.37
2022-08-19T12:21:56.445Z,12.20
2022-08-19T12:24:25.433Z,11.97
2022-08-19T12:26:54.375Z,13.83
2022-08-19T12:29:28.959Z,15.37
2022-08-19T12:32:01.482Z,9.93
2022-08-19T12:34:31.716Z,10.60
2022-08-19T12:37:03.801Z,13.57
2022-08-19T12:39:32.489Z,10.30
2022-08-19T12:42:00.619Z,12.83
2022-08-19T12:44:29.251Z,10.50
2022-08-19T12:47:00.811Z,10.33
2022-08-19T12:49:54.290Z,10.67
2022-08-19T12:52:22.835Z,11.10
2022-08-19T12:54:53.917Z,14.00
2022-08-19T12:57:24.505Z,11.10
2022-08-19T13:00:04.655Z,11.13
2022-08-19T13:02:38.552Z,10.30
2022-08-19T13:05:09.668Z,12.60
2022-08-19T13:07:39.642Z,10.93
2022-08-19T13:10:09.609Z,11.07
2022-08-19T13:12:37.584Z,10.37
2022-08-19T13:15:11.140Z,10.67
2022-08-19T13:17:40.134Z,13.17
2022-08-19T13:20:09.747Z,10.83
2022-08-19T13:22:39.542Z,11.23
2022-08-19T13:25:09.057Z,14.93
2022-08-19T13:27:37.619Z,13.70
2022-08-19T13:30:24.917Z,12.50
2022-08-19T13:33:10.246Z,13.37
2022-08-19T13:35:38.318Z,11.77
2022-08-19T13:38:11.956Z,10.97
2022-08-19T13:40:41.467Z,11.67
2022-08-19T13:43:12.488Z,13.17
2022-08-19T13:45:50.811Z,12.80
2022-08-19T13:48:19.290Z,12.17
2022-08-19T13:50:48.319Z,10.97
2022-08-19T13:53:18.610Z,12.60
2022-08-19T13:55:47.602Z,12.07
2022-08-19T13:58:15.820Z,11.57
2022-08-19T14:00:47.171Z,11.83
2022-08-19T14:03:16.002Z,11.30
2022-08-19T14:05:44.004Z,11.50
2022-08-19T14:08:15.219Z,11.67
2022-08-19T14:10:47.275Z,10.53
2022-08-19T14:13:18.303Z,10.87
2022-08-19T14:15:46.676Z,11.60
2022-08-19T14:18:14.469Z,10.80
2022-08-19T14:20:42.977Z,12.63
2022-08-19T14:23:11.693Z,12.90
2022-08-19T14:25:39.608Z,11.23
2022-08-19T14:28:09.418Z,12.07
2022-08-19T14:30:39.229Z,12.77
2022-08-19T14:33:08.042Z,11.20
2022-08-19T14:35:36.383Z,12.50
2022-08-19T14:38:05.839Z,12.60
2022-08-19T14:40:33.563Z,11.00
2022-08-19T14:43:06.059Z,12.80
2022-08-19T14:45:38.060Z,11.83
2022-08-19T14:48:06.755Z,14.57
2022-08-19T14:50:34.875Z,12.43
2022-08-19T14:53:08.151Z,11.33
2022-08-19T14:55:44.070Z,12.97
2022-08-19T14:58:29.639Z,12.70
2022-08-19T15:01:00.967Z,12.37
2022-08-19T15:03:29.415Z,12.13
2022-08-19T15:05:58.343Z,11.17
2022-08-19T15:08:27.012Z,11.10
2022-08-19T15:10:55.456Z,11.80
2022-08-19T15:13:23.551Z,12.33
2022-08-19T15:15:52.682Z,10.97
2022-08-19T15:18:22.757Z,13.67
2022-08-19T15:20:51.907Z,13.07
2022-08-19T15:23:22.156Z,10.43
2022-08-19T15:25:53.052Z,10.40
2022-08-19T15:28:20.941Z,11.37
2022-08-19T15:30:48.767Z,9.73
2022-08-19T15:33:16.437Z,10.07
2022-08-19T15:35:46.359Z,10.70
2022-08-19T15:38:14.684Z,10.43
2022-08-19T15:40:43.301Z,12.03
2022-08-19T15:43:11.537Z,9.80
2022-08-19T15:45:40.298Z,10.67
2022-08-19T15:48:08.074Z,10.50
2022-08-19T15:50:35.853Z,11.47
2022-08-19T15:53:08.027Z,10.07
2022-08-19T15:55:38.207Z,9.53
2022-08-19T15:58:29.059Z,11.27
2022-08-19T16:01:15.742Z,12.13
2022-08-19T16:04:01.692Z,11.40
2022-08-19T16:06:30.127Z,11.77
2022-08-19T16:09:02.968Z,12.60
2022-08-19T16:11:39.135Z,12.83
2022-08-19T16:14:09.500Z,14.97
2022-08-19T16:16:38.369Z,17.67
2022-08-19T16:19:10.543Z,11.70
2022-08-19T16:21:42.064Z,11.00
2022-08-19T16:24:13.995Z,13.57
2022-08-19T16:26:43.221Z,10.87
2022-08-19T16:29:12.138Z,12.57
2022-08-19T16:31:41.755Z,12.00
2022-08-19T16:34:10.129Z,11.87
2022-08-19T16:36:42.035Z,14.13
2022-08-19T16:39:12.722Z,12.40
2022-08-19T16:41:41.273Z,14.73
2022-08-19T16:44:11.602Z,13.30
2022-08-19T16:46:41.622Z,12.97
2022-08-19T16:49:10.589Z,11.97
2022-08-19T16:51:39.052Z,13.37
2022-08-19T16:54:07.602Z,12.80
2022-08-19T16:56:37.269Z,13.63
2022-08-19T16:59:06.480Z,11.90
2022-08-19T17:01:34.539Z,12.27
2022-08-19T17:04:02.647Z,13.90
2022-08-19T17:06:32.643Z,11.60
2022-08-19T17:09:01.791Z,12.17
2022-08-19T17:11:31.615Z,11.73
2022-08-19T17:14:00.739Z,12.00
2022-08-19T17:16:32.053Z,10.83
2022-08-19T17:19:02.269Z,12.43
2022-08-19T17:21:32.564Z,10.90
2022-08-19T17:24:01.805Z,10.90
2022-08-19T17:26:31.305Z,10.33
2022-08-19T17:29:01.348Z,12.50
2022-08-19T17:31:31.263Z,10.80
2022-08-19T17:33:59.771Z,10.77
2022-08-19T17:36:30.326Z,12.73
2022-08-19T17:39:00.460Z,10.50
2022-08-19T17:41:30.310Z,9.23
2022-08-19T17:43:59.972Z,10.70
2022-08-19T17:46:30.307Z,9.03
2022-08-19T17:48:58.429Z,12.73
2022-08-19T17:51:42.085Z,10.10
2022-08-19T17:54:11.984Z,9.53
2022-08-19T17:56:40.417Z,9.53
2022-08-19T17:59:14.068Z,8.07
2022-08-19T18:01:52.161Z,8.60
2022-08-19T18:04:24.110Z,8.40
2022-08-19T18:06:54.395Z,8.90
2022-08-19T18:09:25.207Z,8.27
2022-08-19T18:11:54.540Z,8.23
2022-08-19T18:14:33.993Z,9.77
2022-08-19T18:17:06.008Z,8.60
2022-08-19T18:19:41.990Z,8.07
2022-08-19T18:22:16.279Z,11.03
2022-08-19T18:24:45.987Z,9.13
2022-08-19T18:27:15.612Z,8.30
2022-08-19T18:29:45.538Z,8.93
2022-08-19T18:32:13.843Z,9.20
2022-08-19T18:34:42.298Z,10.40
2022-08-19T18:37:10.081Z,9.30
2022-08-19T18:39:55.128Z,10.93
2022-08-19T18:42:40.716Z,13.27
2022-08-19T18:45:28.173Z,11.20
2022-08-19T18:48:27.060Z,8.77
2022-08-19T18:50:56.984Z,9.23
2022-08-19T18:53:25.828Z,10.37
2022-08-19T18:55:55.282Z,8.40
2022-08-19T18:58:26.339Z,8.63
2022-08-19T19:00:57.353Z,8.90
2022-08-19T19:03:26.609Z,9.20
2022-08-19T19:05:54.657Z,9.80
2022-08-19T19:08:26.819Z,9.83
2022-08-19T19:11:05.016Z,11.57
2022-08-19T19:13:33.188Z,12.47
2022-08-19T19:16:02.871Z,14.90
2022-08-19T19:18:33.300Z,14.87
2022-08-19T19:21:01.026Z,12.50
2022-08-19T19:23:28.710Z,12.40
2022-08-19T19:25:58.412Z,12.15
2022-08-19T19:28:28.288Z,12.40
2022-08-19T19:30:58.656Z,12.37
2022-08-19T19:33:31.212Z,14.27
2022-08-19T19:35:59.550Z,13.13
2022-08-19T19:38:27.389Z,12.73
2022-08-19T19:40:55.133Z,15.00
2022-08-19T19:43:22.975Z,13.67
2022-08-19T19:45:51.945Z,13.70
2022-08-19T19:48:19.723Z,13.63
2022-08-19T19:50:54.082Z,13.83
2022-08-19T19:53:24.122Z,15.37
2022-08-19T19:55:57.575Z,14.03
2022-08-19T19:58:28.723Z,14.87
2022-08-19T20:01:00.543Z,14.70
2022-08-19T20:03:32.691Z,15.10
2022-08-19T20:06:01.734Z,16.20
2022-08-19T20:08:58.818Z,15.40
2022-08-19T20:11:32.623Z,17.00
2022-08-19T20:14:02.534Z,15.83
2022-08-19T20:16:31.116Z,18.30
2022-08-19T20:19:00.899Z,17.13
2022-08-19T20:21:32.583Z,16.73
2022-08-19T20:24:08.948Z,17.90
2022-08-19T20:26:37.492Z,16.00
2022-08-19T20:29:13.242Z,16.97
2022-08-19T20:31:46.565Z,17.40
2022-08-19T20:34:25.308Z,17.93
2022-08-19T20:36:54.396Z,17.23
2022-08-19T20:39:22.161Z,17.47
2022-08-19T20:41:49.788Z,19.90
2022-08-19T20:44:17.613Z,17.90
2022-08-19T20:46:54.812Z,20.40
2022-08-19T20:49:26.795Z,17.43
2022-08-19T20:51:56.901Z,17.83
2022-08-19T20:54:25.471Z,16.53
2022-08-19T20:56:53.431Z,17.07
2022-08-19T20:59:22.292Z,19.83
2022-08-19T21:01:51.813Z,17.67
2022-08-19T21:04:20.262Z,16.90
2022-08-19T21:06:48.139Z,14.10
2022-08-19T21:09:17.242Z,12.33
2022-08-19T21:11:45.518Z,12.93
2022-08-19T21:14:13.688Z,12.50
2022-08-19T21:16:41.511Z,12.30
2022-08-19T21:19:09.256Z,12.17
2022-08-19T21:21:37.081Z,11.73
2022-08-19T21:24:05.593Z,11.63
2022-08-19T21:26:34.638Z,11.20
2022-08-19T21:29:02.512Z,12.27
2022-08-19T21:31:30.395Z,10.10
2022-08-19T21:33:58.256Z,11.30
2022-08-19T21:36:26.065Z,11.77
2022-08-19T21:38:53.919Z,13.97
2022-08-19T21:41:22.246Z,10.10
2022-08-19T21:43:51.364Z,8.80
2022-08-19T21:46:19.163Z,8.27
2022-08-19T21:48:46.897Z,8.97
2022-08-19T21:51:14.650Z,9.93
2022-08-19T21:53:42.388Z,10.20
2022-08-19T21:56:11.474Z,10.03
2022-08-19T21:58:39.316Z,9.47
2022-08-19T22:01:08.629Z,8.50
2022-08-19T22:03:38.223Z,10.40
2022-08-19T22:06:06.609Z,9.27
2022-08-19T22:08:34.352Z,9.97
2022-08-19T22:11:02.785Z,11.30
2022-08-19T22:13:40.066Z,10.73
2022-08-19T22:16:11.111Z,11.10
2022-08-19T22:18:38.821Z,10.97
2022-08-19T22:21:11.213Z,13.43
2022-08-19T22:23:39.639Z,12.57
2022-08-19T22:26:07.604Z,12.40
2022-08-19T22:28:35.338Z,14.27
2022-08-19T22:31:03.485Z,19.60
2022-08-19T22:33:33.536Z,20.47
2022-08-19T22:36:01.551Z,19.40
2022-08-19T22:38:29.291Z,19.63
2022-08-19T22:40:57.273Z,23.33
2022-08-19T22:43:28.467Z,20.63
2022-08-19T22:45:57.141Z,21.83
2022-08-19T22:48:28.009Z,20.13
2022-08-19T22:51:15.441Z,20.27
2022-08-19T22:53:46.552Z,21.37
2022-08-19T22:56:18.147Z,23.60
2022-08-19T22:58:46.666Z,20.37
2022-08-19T23:01:27.352Z,20.57
2022-08-19T23:03:59.489Z,20.80
2022-08-19T23:06:33.953Z,20.00
2022-08-19T23:09:04.525Z,19.87
2022-08-19T23:11:35.740Z,19.10
2022-08-19T23:14:08.773Z,19.30
2022-08-19T23:16:36.734Z,20.33
2022-08-19T23:19:05.469Z,19.90
2022-08-19T23:21:36.208Z,18.00
2022-08-19T23:24:04.664Z,19.13
2022-08-19T23:26:35.756Z,19.33
2022-08-19T23:29:30.521Z,18.40
2022-08-19T23:31:58.277Z,19.20
2022-08-19T23:34:26.085Z,17.97
2022-08-19T23:36:55.207Z,16.90
2022-08-19T23:39:22.918Z,16.73
2022-08-19T23:41:50.656Z,17.03
2022-08-19T23:44:18.563Z,18.17
2022-08-19T23:46:55.197Z,17.23
2022-08-19T23:49:24.575Z,15.93
2022-08-19T23:51:52.347Z,18.43
2022-08-19T23:54:21.458Z,17.73
2022-08-19T23:56:49.260Z,17.43
2022-08-19T23:59:19.177Z,19.00
